This is the latest recevied weather packets stored in our database for station/object N4OGP-WX. If no packets are shown the sender has not sent any weather packets the latest 10 day(s).
| Time | Temp. | Humidity | Pressure | Rain* | Wind** | Luminosity | Snow |
|---|---|---|---|---|---|---|---|
| 1777558670 | 22.78° C | 79% | 1010.7 hPa | 0 mm | - | - | - |
| 1777558610 | 22.78° C | 80% | 1010.7 hPa | 0 mm | - | - | - |
| 1777558550 | 23.89° C | 42% | 1020.4 hPa | 0 mm | - | - | - |
| 1777558490 | 22.22° C | 80% | 1010.6 hPa | 0 mm | - | - | - |
| 1777558400 | 23.89° C | 42% | 1020.4 hPa | 0 mm | - | - | - |
| 1777558340 | 23.89° C | 42% | 1020.4 hPa | 0 mm | - | - | - |
| 1777558280 | 23.89° C | 42% | 1020.4 hPa | 0 mm | - | - | - |
| 1777558220 | 22.22° C | 81% | 1010.5 hPa | 0 mm | - | - | - |
| 1777558130 | 22.22° C | 82% | 1010.5 hPa | 0 mm | - | - | - |
| 1777558070 | 22.22° C | 82% | 1010.5 hPa | 0 mm | - | - | - |
| 1777558010 | 23.89° C | 42% | 1020.4 hPa | 0 mm | - | - | - |
| 1777557950 | 23.89° C | 42% | 1020.4 hPa | 0 mm | - | - | - |
| 1777557890 | 23.89° C | 42% | 1020.4 hPa | 0 mm | - | - | - |
| 1777557830 | 21.67° C | 83% | 1010.6 hPa | 0 mm | - | - | - |
| 1777557770 | 23.89° C | 42% | 1020.4 hPa | 0 mm | - | - | - |
| 1777557680 | 23.89° C | 42% | 1020.4 hPa | 0 mm | - | - | - |
| 1777557620 | 23.89° C | 42% | 1020.4 hPa | 0 mm | - | - | - |
| 1777557560 | 21.67° C | 84% | 1010.5 hPa | 0 mm | - | - | - |
| 1777557470 | 23.89° C | 42% | 1020.4 hPa | 0 mm | - | - | - |
| 1777557410 | 21.67° C | 84% | 1010.4 hPa | 0 mm | - | - | - |
| 1777557350 | 21.67° C | 84% | 1010.4 hPa | 0 mm | - | - | - |
| 1777557290 | 23.89° C | 42% | 1020.4 hPa | 0 mm | - | - | - |
| 1777557200 | 23.89° C | 42% | 1020.4 hPa | 0 mm | - | - | - |
| 1777557140 | 23.89° C | 42% | 1020.4 hPa | 0 mm | - | - | - |
| 1777557080 | 23.89° C | 42% | 1020.4 hPa | 0 mm | - | - | - |
* Rain latest hour (hover to see other rain measurements)
** Current wind speed in m/s (hover to see current wind gust speed)